sensor_id;sensor_type;location;lat;lon;timestamp;P1;durP1;ratioP1;P2;durP2;ratioP2
28822;SDS011;15961;54.678;9.110;2022-12-26T00:00:50;77.70;;;35.15;;
28822;SDS011;15961;54.678;9.110;2022-12-26T00:03:24;103.10;;;35.55;;
28822;SDS011;15961;54.678;9.110;2022-12-26T00:05:49;69.00;;;32.97;;
28822;SDS011;15961;54.678;9.110;2022-12-26T00:08:15;87.20;;;32.17;;
28822;SDS011;15961;54.678;9.110;2022-12-26T00:10:41;102.10;;;34.78;;
28822;SDS011;15961;54.678;9.110;2022-12-26T00:13:07;145.73;;;37.58;;
28822;SDS011;15961;54.678;9.110;2022-12-26T00:15:33;100.93;;;38.17;;
28822;SDS011;15961;54.678;9.110;2022-12-26T00:17:58;70.53;;;33.03;;
28822;SDS011;15961;54.678;9.110;2022-12-26T00:20:24;87.90;;;36.47;;
28822;SDS011;15961;54.678;9.110;2022-12-26T00:22:49;81.38;;;34.40;;
28822;SDS011;15961;54.678;9.110;2022-12-26T00:25:15;72.72;;;32.13;;
28822;SDS011;15961;54.678;9.110;2022-12-26T00:27:40;136.70;;;36.75;;
28822;SDS011;15961;54.678;9.110;2022-12-26T00:30:06;107.15;;;34.60;;
28822;SDS011;15961;54.678;9.110;2022-12-26T00:32:32;116.00;;;36.60;;
28822;SDS011;15961;54.678;9.110;2022-12-26T00:34:58;71.20;;;31.27;;
28822;SDS011;15961;54.678;9.110;2022-12-26T00:37:23;191.57;;;38.25;;
28822;SDS011;15961;54.678;9.110;2022-12-26T00:39:49;459.70;;;50.28;;
28822;SDS011;15961;54.678;9.110;2022-12-26T00:42:14;107.47;;;34.15;;
28822;SDS011;15961;54.678;9.110;2022-12-26T00:44:40;81.95;;;32.20;;
28822;SDS011;15961;54.678;9.110;2022-12-26T00:47:05;91.35;;;33.25;;
28822;SDS011;15961;54.678;9.110;2022-12-26T00:49:31;75.13;;;30.23;;
28822;SDS011;15961;54.678;9.110;2022-12-26T00:51:56;69.35;;;29.70;;
28822;SDS011;15961;54.678;9.110;2022-12-26T00:54:22;71.43;;;27.70;;
28822;SDS011;15961;54.678;9.110;2022-12-26T00:56:47;198.70;;;33.70;;
28822;SDS011;15961;54.678;9.110;2022-12-26T00:59:13;104.18;;;32.10;;
28822;SDS011;15961;54.678;9.110;2022-12-26T01:01:38;178.00;;;36.05;;
28822;SDS011;15961;54.678;9.110;2022-12-26T01:04:04;76.10;;;28.35;;
28822;SDS011;15961;54.678;9.110;2022-12-26T01:06:29;102.88;;;31.15;;
28822;SDS011;15961;54.678;9.110;2022-12-26T01:08:55;488.30;;;46.58;;
28822;SDS011;15961;54.678;9.110;2022-12-26T01:11:20;394.65;;;40.45;;
28822;SDS011;15961;54.678;9.110;2022-12-26T01:14:05;83.03;;;26.17;;
28822;SDS011;15961;54.678;9.110;2022-12-26T01:16:32;199.60;;;32.30;;
28822;SDS011;15961;54.678;9.110;2022-12-26T01:18:58;287.35;;;36.28;;
28822;SDS011;15961;54.678;9.110;2022-12-26T01:21:23;87.38;;;26.67;;
28822;SDS011;15961;54.678;9.110;2022-12-26T01:23:49;100.30;;;26.48;;
28822;SDS011;15961;54.678;9.110;2022-12-26T01:26:14;183.02;;;29.73;;
28822;SDS011;15961;54.678;9.110;2022-12-26T01:28:40;89.47;;;27.92;;
28822;SDS011;15961;54.678;9.110;2022-12-26T01:31:05;204.15;;;29.98;;
28822;SDS011;15961;54.678;9.110;2022-12-26T01:33:31;144.45;;;30.10;;
28822;SDS011;15961;54.678;9.110;2022-12-26T01:35:57;256.63;;;32.67;;
28822;SDS011;15961;54.678;9.110;2022-12-26T01:38:23;264.92;;;34.30;;
28822;SDS011;15961;54.678;9.110;2022-12-26T01:40:48;93.50;;;28.48;;
28822;SDS011;15961;54.678;9.110;2022-12-26T01:43:45;165.70;;;29.08;;
28822;SDS011;15961;54.678;9.110;2022-12-26T01:46:38;107.15;;;24.17;;
28822;SDS011;15961;54.678;9.110;2022-12-26T01:49:16;177.48;;;29.55;;
28822;SDS011;15961;54.678;9.110;2022-12-26T01:51:47;101.70;;;27.83;;
28822;SDS011;15961;54.678;9.110;2022-12-26T01:54:19;293.23;;;33.45;;
28822;SDS011;15961;54.678;9.110;2022-12-26T01:56:46;197.82;;;32.00;;
28822;SDS011;15961;54.678;9.110;2022-12-26T01:59:14;150.32;;;27.88;;
28822;SDS011;15961;54.678;9.110;2022-12-26T02:01:43;82.97;;;25.40;;
28822;SDS011;15961;54.678;9.110;2022-12-26T02:04:12;95.72;;;26.63;;
28822;SDS011;15961;54.678;9.110;2022-12-26T02:07:00;208.40;;;32.55;;
28822;SDS011;15961;54.678;9.110;2022-12-26T02:09:28;80.25;;;26.42;;
28822;SDS011;15961;54.678;9.110;2022-12-26T02:12:01;79.38;;;24.00;;
28822;SDS011;15961;54.678;9.110;2022-12-26T02:14:32;98.95;;;27.50;;
28822;SDS011;15961;54.678;9.110;2022-12-26T02:16:59;88.32;;;27.63;;
28822;SDS011;15961;54.678;9.110;2022-12-26T02:19:31;282.88;;;36.75;;
28822;SDS011;15961;54.678;9.110;2022-12-26T02:22:19;80.95;;;27.75;;
28822;SDS011;15961;54.678;9.110;2022-12-26T02:25:21;204.07;;;34.58;;
28822;SDS011;15961;54.678;9.110;2022-12-26T02:28:23;70.78;;;25.35;;
28822;SDS011;15961;54.678;9.110;2022-12-26T02:36:28;252.38;;;36.65;;
28822;SDS011;15961;54.678;9.110;2022-12-26T02:39:20;237.63;;;33.28;;
28822;SDS011;15961;54.678;9.110;2022-12-26T02:42:23;150.40;;;29.60;;
28822;SDS011;15961;54.678;9.110;2022-12-26T02:45:14;81.20;;;23.30;;
28822;SDS011;15961;54.678;9.110;2022-12-26T02:48:19;87.85;;;21.77;;
28822;SDS011;15961;54.678;9.110;2022-12-26T02:54:57;45.15;;;15.65;;
28822;SDS011;15961;54.678;9.110;2022-12-26T02:57:40;48.47;;;15.75;;
28822;SDS011;15961;54.678;9.110;2022-12-26T03:00:41;42.63;;;14.65;;
28822;SDS011;15961;54.678;9.110;2022-12-26T03:03:11;41.65;;;13.93;;
28822;SDS011;15961;54.678;9.110;2022-12-26T03:06:02;40.97;;;11.57;;
28822;SDS011;15961;54.678;9.110;2022-12-26T03:09:02;26.60;;;8.90;;
28822;SDS011;15961;54.678;9.110;2022-12-26T03:11:58;34.15;;;9.55;;
28822;SDS011;15961;54.678;9.110;2022-12-26T03:14:54;40.50;;;10.63;;
28822;SDS011;15961;54.678;9.110;2022-12-26T03:17:30;53.88;;;13.30;;
28822;SDS011;15961;54.678;9.110;2022-12-26T03:20:05;41.85;;;14.57;;
28822;SDS011;15961;54.678;9.110;2022-12-26T03:22:36;46.15;;;15.80;;
28822;SDS011;15961;54.678;9.110;2022-12-26T03:25:40;48.42;;;15.52;;
28822;SDS011;15961;54.678;9.110;2022-12-26T03:28:39;53.05;;;15.60;;
28822;SDS011;15961;54.678;9.110;2022-12-26T03:31:07;53.45;;;14.95;;
28822;SDS011;15961;54.678;9.110;2022-12-26T03:33:39;35.92;;;14.30;;
28822;SDS011;15961;54.678;9.110;2022-12-26T03:41:39;34.65;;;14.32;;
28822;SDS011;15961;54.678;9.110;2022-12-26T03:47:52;30.77;;;11.77;;
28822;SDS011;15961;54.678;9.110;2022-12-26T03:50:44;27.15;;;9.95;;
28822;SDS011;15961;54.678;9.110;2022-12-26T03:56:54;36.60;;;10.60;;
28822;SDS011;15961;54.678;9.110;2022-12-26T03:59:48;31.80;;;11.82;;
28822;SDS011;15961;54.678;9.110;2022-12-26T04:02:35;40.55;;;11.82;;
28822;SDS011;15961;54.678;9.110;2022-12-26T04:05:20;29.98;;;11.05;;
28822;SDS011;15961;54.678;9.110;2022-12-26T04:08:08;33.10;;;10.93;;
28822;SDS011;15961;54.678;9.110;2022-12-26T04:10:57;26.80;;;10.20;;
28822;SDS011;15961;54.678;9.110;2022-12-26T04:13:46;31.58;;;10.02;;
28822;SDS011;15961;54.678;9.110;2022-12-26T04:23:04;110.90;;;14.18;;
28822;SDS011;15961;54.678;9.110;2022-12-26T04:25:57;106.72;;;13.50;;
28822;SDS011;15961;54.678;9.110;2022-12-26T04:28:47;59.83;;;15.45;;
28822;SDS011;15961;54.678;9.110;2022-12-26T04:31:32;357.55;;;26.33;;
28822;SDS011;15961;54.678;9.110;2022-12-26T04:34:55;79.03;;;15.82;;
28822;SDS011;15961;54.678;9.110;2022-12-26T04:37:47;95.30;;;18.38;;
28822;SDS011;15961;54.678;9.110;2022-12-26T04:40:34;132.20;;;20.02;;
28822;SDS011;15961;54.678;9.110;2022-12-26T04:43:23;102.88;;;20.58;;
28822;SDS011;15961;54.678;9.110;2022-12-26T04:46:09;106.07;;;20.90;;
28822;SDS011;15961;54.678;9.110;2022-12-26T04:48:40;191.88;;;23.70;;
28822;SDS011;15961;54.678;9.110;2022-12-26T04:51:27;53.58;;;18.30;;
28822;SDS011;15961;54.678;9.110;2022-12-26T04:53:52;521.00;;;41.92;;
28822;SDS011;15961;54.678;9.110;2022-12-26T04:56:18;605.63;;;45.30;;
28822;SDS011;15961;54.678;9.110;2022-12-26T04:58:44;158.82;;;29.33;;
28822;SDS011;15961;54.678;9.110;2022-12-26T05:01:09;463.75;;;44.10;;
28822;SDS011;15961;54.678;9.110;2022-12-26T05:03:58;614.80;;;51.08;;
28822;SDS011;15961;54.678;9.110;2022-12-26T05:06:42;606.60;;;47.10;;
28822;SDS011;15961;54.678;9.110;2022-12-26T05:09:47;424.67;;;38.30;;
28822;SDS011;15961;54.678;9.110;2022-12-26T05:12:15;315.67;;;34.88;;
28822;SDS011;15961;54.678;9.110;2022-12-26T05:14:41;175.25;;;31.13;;
28822;SDS011;15961;54.678;9.110;2022-12-26T05:17:06;211.00;;;33.80;;
28822;SDS011;15961;54.678;9.110;2022-12-26T05:19:51;228.88;;;34.60;;
28822;SDS011;15961;54.678;9.110;2022-12-26T05:22:39;483.77;;;43.17;;
28822;SDS011;15961;54.678;9.110;2022-12-26T05:25:26;229.48;;;33.00;;
28822;SDS011;15961;54.678;9.110;2022-12-26T05:28:13;292.17;;;36.80;;
28822;SDS011;15961;54.678;9.110;2022-12-26T05:30:59;283.52;;;37.65;;
28822;SDS011;15961;54.678;9.110;2022-12-26T05:33:26;382.20;;;38.58;;
28822;SDS011;15961;54.678;9.110;2022-12-26T05:36:10;482.77;;;42.33;;
28822;SDS011;15961;54.678;9.110;2022-12-26T05:38:37;334.70;;;38.22;;
28822;SDS011;15961;54.678;9.110;2022-12-26T05:41:03;305.00;;;38.10;;
28822;SDS011;15961;54.678;9.110;2022-12-26T05:43:29;228.00;;;32.65;;
28822;SDS011;15961;54.678;9.110;2022-12-26T05:45:55;250.18;;;33.00;;
28822;SDS011;15961;54.678;9.110;2022-12-26T05:48:20;204.32;;;32.75;;
28822;SDS011;15961;54.678;9.110;2022-12-26T05:50:46;153.55;;;30.38;;
28822;SDS011;15961;54.678;9.110;2022-12-26T05:53:11;225.20;;;32.35;;
28822;SDS011;15961;54.678;9.110;2022-12-26T05:55:37;199.00;;;30.73;;
28822;SDS011;15961;54.678;9.110;2022-12-26T05:58:02;230.63;;;34.15;;
28822;SDS011;15961;54.678;9.110;2022-12-26T06:00:28;221.20;;;33.28;;
28822;SDS011;15961;54.678;9.110;2022-12-26T06:02:54;159.68;;;31.52;;
28822;SDS011;15961;54.678;9.110;2022-12-26T06:05:20;169.18;;;31.27;;
28822;SDS011;15961;54.678;9.110;2022-12-26T06:07:46;177.65;;;31.88;;
28822;SDS011;15961;54.678;9.110;2022-12-26T06:10:12;152.50;;;29.52;;
28822;SDS011;15961;54.678;9.110;2022-12-26T06:12:37;176.88;;;29.55;;
28822;SDS011;15961;54.678;9.110;2022-12-26T06:15:03;157.82;;;29.23;;
28822;SDS011;15961;54.678;9.110;2022-12-26T06:17:29;184.98;;;32.05;;
28822;SDS011;15961;54.678;9.110;2022-12-26T06:19:54;160.52;;;30.92;;
28822;SDS011;15961;54.678;9.110;2022-12-26T06:22:20;166.68;;;30.75;;
28822;SDS011;15961;54.678;9.110;2022-12-26T06:24:46;155.45;;;30.80;;
28822;SDS011;15961;54.678;9.110;2022-12-26T06:27:11;113.20;;;28.17;;
28822;SDS011;15961;54.678;9.110;2022-12-26T06:29:37;154.88;;;30.25;;
28822;SDS011;15961;54.678;9.110;2022-12-26T06:32:02;149.20;;;30.35;;
28822;SDS011;15961;54.678;9.110;2022-12-26T06:34:28;131.02;;;28.88;;
28822;SDS011;15961;54.678;9.110;2022-12-26T06:36:54;151.43;;;30.75;;
28822;SDS011;15961;54.678;9.110;2022-12-26T06:39:20;174.70;;;32.08;;
28822;SDS011;15961;54.678;9.110;2022-12-26T06:41:46;164.93;;;30.60;;
28822;SDS011;15961;54.678;9.110;2022-12-26T06:44:11;160.85;;;29.77;;
28822;SDS011;15961;54.678;9.110;2022-12-26T06:46:37;156.80;;;32.63;;
28822;SDS011;15961;54.678;9.110;2022-12-26T06:49:03;164.65;;;30.90;;
28822;SDS011;15961;54.678;9.110;2022-12-26T06:51:31;119.97;;;30.38;;
28822;SDS011;15961;54.678;9.110;2022-12-26T06:53:58;167.38;;;32.25;;
28822;SDS011;15961;54.678;9.110;2022-12-26T06:56:25;187.00;;;32.65;;
28822;SDS011;15961;54.678;9.110;2022-12-26T06:58:54;263.17;;;38.80;;
28822;SDS011;15961;54.678;9.110;2022-12-26T07:01:22;157.32;;;33.70;;
28822;SDS011;15961;54.678;9.110;2022-12-26T07:03:50;172.07;;;35.47;;
28822;SDS011;15961;54.678;9.110;2022-12-26T07:06:26;194.70;;;37.40;;
28822;SDS011;15961;54.678;9.110;2022-12-26T07:08:57;287.92;;;45.55;;
28822;SDS011;15961;54.678;9.110;2022-12-26T07:11:26;187.13;;;38.10;;
28822;SDS011;15961;54.678;9.110;2022-12-26T07:13:53;224.30;;;39.92;;
28822;SDS011;15961;54.678;9.110;2022-12-26T07:16:19;237.93;;;39.70;;
28822;SDS011;15961;54.678;9.110;2022-12-26T07:18:45;199.23;;;37.67;;
28822;SDS011;15961;54.678;9.110;2022-12-26T07:21:11;204.60;;;38.83;;
28822;SDS011;15961;54.678;9.110;2022-12-26T07:23:38;211.23;;;38.90;;
28822;SDS011;15961;54.678;9.110;2022-12-26T07:26:04;198.63;;;39.35;;
28822;SDS011;15961;54.678;9.110;2022-12-26T07:28:30;223.57;;;41.70;;
28822;SDS011;15961;54.678;9.110;2022-12-26T07:30:55;197.15;;;41.22;;
28822;SDS011;15961;54.678;9.110;2022-12-26T07:33:21;200.82;;;44.38;;
28822;SDS011;15961;54.678;9.110;2022-12-26T07:35:47;148.75;;;36.10;;
28822;SDS011;15961;54.678;9.110;2022-12-26T07:38:13;187.88;;;43.13;;
28822;SDS011;15961;54.678;9.110;2022-12-26T07:40:39;207.27;;;45.08;;
28822;SDS011;15961;54.678;9.110;2022-12-26T07:43:04;195.32;;;43.33;;
28822;SDS011;15961;54.678;9.110;2022-12-26T07:45:30;175.40;;;42.65;;
28822;SDS011;15961;54.678;9.110;2022-12-26T07:47:56;146.27;;;36.92;;
28822;SDS011;15961;54.678;9.110;2022-12-26T07:50:23;172.05;;;39.90;;
28822;SDS011;15961;54.678;9.110;2022-12-26T07:52:49;154.40;;;40.22;;
28822;SDS011;15961;54.678;9.110;2022-12-26T07:55:15;150.23;;;40.75;;
28822;SDS011;15961;54.678;9.110;2022-12-26T07:57:41;149.90;;;39.95;;
28822;SDS011;15961;54.678;9.110;2022-12-26T08:00:07;160.85;;;44.53;;
28822;SDS011;15961;54.678;9.110;2022-12-26T08:02:33;144.82;;;41.42;;
28822;SDS011;15961;54.678;9.110;2022-12-26T08:04:59;137.60;;;40.10;;
28822;SDS011;15961;54.678;9.110;2022-12-26T08:07:24;140.00;;;42.83;;
28822;SDS011;15961;54.678;9.110;2022-12-26T08:09:50;143.38;;;41.28;;
28822;SDS011;15961;54.678;9.110;2022-12-26T08:12:15;169.60;;;45.05;;
28822;SDS011;15961;54.678;9.110;2022-12-26T08:14:41;150.18;;;46.00;;
28822;SDS011;15961;54.678;9.110;2022-12-26T08:17:07;133.95;;;44.15;;
28822;SDS011;15961;54.678;9.110;2022-12-26T08:19:32;145.50;;;44.35;;
28822;SDS011;15961;54.678;9.110;2022-12-26T08:21:58;130.57;;;43.50;;
28822;SDS011;15961;54.678;9.110;2022-12-26T08:24:24;138.70;;;43.47;;
28822;SDS011;15961;54.678;9.110;2022-12-26T08:26:49;140.02;;;44.47;;
28822;SDS011;15961;54.678;9.110;2022-12-26T08:29:15;150.13;;;45.30;;
28822;SDS011;15961;54.678;9.110;2022-12-26T08:31:40;139.18;;;46.03;;
28822;SDS011;15961;54.678;9.110;2022-12-26T08:34:06;130.65;;;43.90;;
28822;SDS011;15961;54.678;9.110;2022-12-26T08:36:31;123.35;;;41.08;;
28822;SDS011;15961;54.678;9.110;2022-12-26T08:38:57;147.20;;;46.30;;
28822;SDS011;15961;54.678;9.110;2022-12-26T08:41:23;132.80;;;42.78;;
28822;SDS011;15961;54.678;9.110;2022-12-26T08:43:49;129.13;;;44.60;;
28822;SDS011;15961;54.678;9.110;2022-12-26T08:46:16;130.45;;;44.42;;
28822;SDS011;15961;54.678;9.110;2022-12-26T08:48:43;122.20;;;43.47;;
28822;SDS011;15961;54.678;9.110;2022-12-26T08:51:22;119.20;;;41.78;;
28822;SDS011;15961;54.678;9.110;2022-12-26T08:53:49;109.63;;;39.53;;
28822;SDS011;15961;54.678;9.110;2022-12-26T08:56:17;111.70;;;41.33;;
28822;SDS011;15961;54.678;9.110;2022-12-26T08:58:44;107.85;;;39.10;;
28822;SDS011;15961;54.678;9.110;2022-12-26T09:01:15;106.72;;;40.28;;
28822;SDS011;15961;54.678;9.110;2022-12-26T09:03:45;113.13;;;43.22;;
28822;SDS011;15961;54.678;9.110;2022-12-26T09:06:11;110.68;;;43.47;;
28822;SDS011;15961;54.678;9.110;2022-12-26T09:08:38;121.07;;;46.53;;
28822;SDS011;15961;54.678;9.110;2022-12-26T09:11:06;107.20;;;41.90;;
28822;SDS011;15961;54.678;9.110;2022-12-26T09:13:33;116.03;;;44.33;;
28822;SDS011;15961;54.678;9.110;2022-12-26T09:18:34;101.13;;;41.13;;
28822;SDS011;15961;54.678;9.110;2022-12-26T09:21:01;99.18;;;40.47;;
28822;SDS011;15961;54.678;9.110;2022-12-26T09:23:27;94.10;;;41.08;;
28822;SDS011;15961;54.678;9.110;2022-12-26T09:25:54;116.82;;;43.28;;
28822;SDS011;15961;54.678;9.110;2022-12-26T09:28:19;102.13;;;39.17;;
28822;SDS011;15961;54.678;9.110;2022-12-26T09:30:45;106.65;;;40.67;;
28822;SDS011;15961;54.678;9.110;2022-12-26T09:33:11;119.32;;;43.92;;
28822;SDS011;15961;54.678;9.110;2022-12-26T09:35:39;108.38;;;42.65;;
28822;SDS011;15961;54.678;9.110;2022-12-26T09:38:05;100.53;;;41.88;;
28822;SDS011;15961;54.678;9.110;2022-12-26T09:40:43;95.50;;;41.38;;
28822;SDS011;15961;54.678;9.110;2022-12-26T09:49:05;95.00;;;42.63;;
28822;SDS011;15961;54.678;9.110;2022-12-26T09:51:36;86.88;;;39.50;;
28822;SDS011;15961;54.678;9.110;2022-12-26T09:54:05;88.50;;;39.42;;
28822;SDS011;15961;54.678;9.110;2022-12-26T09:56:35;88.70;;;40.00;;
28822;SDS011;15961;54.678;9.110;2022-12-26T09:59:04;96.88;;;40.08;;
28822;SDS011;15961;54.678;9.110;2022-12-26T10:01:37;89.68;;;39.15;;
28822;SDS011;15961;54.678;9.110;2022-12-26T10:04:06;84.82;;;39.28;;
28822;SDS011;15961;54.678;9.110;2022-12-26T10:06:37;94.65;;;40.08;;
28822;SDS011;15961;54.678;9.110;2022-12-26T10:25:47;76.78;;;41.13;;
28822;SDS011;15961;54.678;9.110;2022-12-26T10:28:31;92.35;;;42.17;;
28822;SDS011;15961;54.678;9.110;2022-12-26T10:37:00;86.00;;;36.80;;
28822;SDS011;15961;54.678;9.110;2022-12-26T10:42:36;72.05;;;35.08;;
28822;SDS011;15961;54.678;9.110;2022-12-26T10:47:47;72.13;;;34.50;;
28822;SDS011;15961;54.678;9.110;2022-12-26T10:50:15;62.40;;;33.92;;
28822;SDS011;15961;54.678;9.110;2022-12-26T10:52:50;59.70;;;32.83;;
28822;SDS011;15961;54.678;9.110;2022-12-26T10:55:16;54.65;;;31.35;;
28822;SDS011;15961;54.678;9.110;2022-12-26T10:57:45;72.97;;;31.85;;
28822;SDS011;15961;54.678;9.110;2022-12-26T11:00:13;66.30;;;33.25;;
28822;SDS011;15961;54.678;9.110;2022-12-26T11:02:43;59.67;;;31.60;;
28822;SDS011;15961;54.678;9.110;2022-12-26T11:05:10;62.33;;;31.38;;
28822;SDS011;15961;54.678;9.110;2022-12-26T11:07:44;62.13;;;31.20;;
28822;SDS011;15961;54.678;9.110;2022-12-26T11:10:18;57.88;;;28.27;;
28822;SDS011;15961;54.678;9.110;2022-12-26T11:12:46;56.17;;;29.98;;
28822;SDS011;15961;54.678;9.110;2022-12-26T11:15:22;56.83;;;28.13;;
28822;SDS011;15961;54.678;9.110;2022-12-26T11:18:05;54.78;;;28.27;;
28822;SDS011;15961;54.678;9.110;2022-12-26T11:20:50;62.97;;;29.00;;
28822;SDS011;15961;54.678;9.110;2022-12-26T11:23:25;54.30;;;28.13;;
28822;SDS011;15961;54.678;9.110;2022-12-26T11:25:55;54.50;;;27.88;;
28822;SDS011;15961;54.678;9.110;2022-12-26T11:28:24;58.03;;;27.20;;
28822;SDS011;15961;54.678;9.110;2022-12-26T11:30:52;58.88;;;25.88;;
28822;SDS011;15961;54.678;9.110;2022-12-26T11:36:01;49.55;;;22.83;;
28822;SDS011;15961;54.678;9.110;2022-12-26T11:38:44;46.30;;;22.38;;
28822;SDS011;15961;54.678;9.110;2022-12-26T11:41:13;41.83;;;22.30;;
28822;SDS011;15961;54.678;9.110;2022-12-26T11:46:37;51.13;;;25.10;;
28822;SDS011;15961;54.678;9.110;2022-12-26T11:49:37;54.67;;;23.25;;
28822;SDS011;15961;54.678;9.110;2022-12-26T11:57:54;45.38;;;20.52;;
28822;SDS011;15961;54.678;9.110;2022-12-26T12:01:17;46.25;;;20.10;;
28822;SDS011;15961;54.678;9.110;2022-12-26T12:03:28;46.38;;;20.13;;
28822;SDS011;15961;54.678;9.110;2022-12-26T12:06:11;46.97;;;17.98;;
28822;SDS011;15961;54.678;9.110;2022-12-26T12:17:06;45.80;;;15.43;;
28822;SDS011;15961;54.678;9.110;2022-12-26T12:27:44;53.03;;;7.65;;
28822;SDS011;15961;54.678;9.110;2022-12-26T12:38:39;60.67;;;8.93;;
28822;SDS011;15961;54.678;9.110;2022-12-26T12:41:22;62.78;;;7.68;;
28822;SDS011;15961;54.678;9.110;2022-12-26T12:43:53;69.82;;;8.77;;
28822;SDS011;15961;54.678;9.110;2022-12-26T12:46:38;74.55;;;8.63;;
28822;SDS011;15961;54.678;9.110;2022-12-26T12:52:19;52.47;;;8.23;;
28822;SDS011;15961;54.678;9.110;2022-12-26T12:57:35;73.75;;;8.95;;
28822;SDS011;15961;54.678;9.110;2022-12-26T13:07:54;55.75;;;8.23;;
28822;SDS011;15961;54.678;9.110;2022-12-26T13:10:29;51.17;;;8.48;;
28822;SDS011;15961;54.678;9.110;2022-12-26T13:12:57;30.92;;;4.60;;
28822;SDS011;15961;54.678;9.110;2022-12-26T13:15:33;48.17;;;6.60;;
28822;SDS011;15961;54.678;9.110;2022-12-26T13:18:04;43.65;;;5.20;;
28822;SDS011;15961;54.678;9.110;2022-12-26T13:20:46;47.83;;;6.38;;
28822;SDS011;15961;54.678;9.110;2022-12-26T13:23:29;44.40;;;4.65;;
28822;SDS011;15961;54.678;9.110;2022-12-26T13:26:20;38.45;;;5.57;;
28822;SDS011;15961;54.678;9.110;2022-12-26T13:28:54;34.05;;;4.93;;
28822;SDS011;15961;54.678;9.110;2022-12-26T13:31:41;36.83;;;4.47;;
28822;SDS011;15961;54.678;9.110;2022-12-26T13:34:09;36.85;;;4.60;;
28822;SDS011;15961;54.678;9.110;2022-12-26T13:36:40;27.70;;;4.05;;
28822;SDS011;15961;54.678;9.110;2022-12-26T13:41:32;34.25;;;4.18;;
28822;SDS011;15961;54.678;9.110;2022-12-26T13:49:26;35.60;;;7.85;;
28822;SDS011;15961;54.678;9.110;2022-12-26T13:54:35;37.45;;;5.07;;
28822;SDS011;15961;54.678;9.110;2022-12-26T13:59:50;30.05;;;5.07;;
28822;SDS011;15961;54.678;9.110;2022-12-26T14:05:22;50.20;;;4.65;;
28822;SDS011;15961;54.678;9.110;2022-12-26T14:07:59;41.67;;;4.35;;
28822;SDS011;15961;54.678;9.110;2022-12-26T14:10:40;35.13;;;5.38;;
28822;SDS011;15961;54.678;9.110;2022-12-26T14:13:19;40.63;;;5.28;;
28822;SDS011;15961;54.678;9.110;2022-12-26T14:16:26;40.17;;;6.32;;
28822;SDS011;15961;54.678;9.110;2022-12-26T14:37:40;35.75;;;5.60;;
28822;SDS011;15961;54.678;9.110;2022-12-26T14:40:32;35.20;;;5.18;;
28822;SDS011;15961;54.678;9.110;2022-12-26T14:45:55;42.50;;;6.25;;
28822;SDS011;15961;54.678;9.110;2022-12-26T14:55:46;43.90;;;5.28;;
28822;SDS011;15961;54.678;9.110;2022-12-26T15:08:58;38.60;;;6.97;;
28822;SDS011;15961;54.678;9.110;2022-12-26T15:12:03;60.08;;;5.82;;
28822;SDS011;15961;54.678;9.110;2022-12-26T15:17:41;18.83;;;4.40;;
28822;SDS011;15961;54.678;9.110;2022-12-26T15:26:19;45.80;;;5.55;;
28822;SDS011;15961;54.678;9.110;2022-12-26T15:40:44;46.83;;;7.13;;
28822;SDS011;15961;54.678;9.110;2022-12-26T15:46:31;48.50;;;10.27;;
28822;SDS011;15961;54.678;9.110;2022-12-26T15:52:13;45.35;;;11.60;;
28822;SDS011;15961;54.678;9.110;2022-12-26T15:59:54;59.08;;;9.10;;
28822;SDS011;15961;54.678;9.110;2022-12-26T16:02:42;31.88;;;7.65;;
28822;SDS011;15961;54.678;9.110;2022-12-26T16:05:23;36.83;;;10.38;;
28822;SDS011;15961;54.678;9.110;2022-12-26T16:13:47;57.22;;;14.60;;
28822;SDS011;15961;54.678;9.110;2022-12-26T16:16:24;86.32;;;18.35;;
28822;SDS011;15961;54.678;9.110;2022-12-26T16:18:53;57.63;;;14.40;;
28822;SDS011;15961;54.678;9.110;2022-12-26T16:21:19;44.83;;;9.70;;
28822;SDS011;15961;54.678;9.110;2022-12-26T16:24:07;41.03;;;9.10;;
28822;SDS011;15961;54.678;9.110;2022-12-26T16:26:37;70.97;;;16.55;;
28822;SDS011;15961;54.678;9.110;2022-12-26T16:29:05;46.15;;;13.15;;
28822;SDS011;15961;54.678;9.110;2022-12-26T16:31:32;27.70;;;7.43;;
28822;SDS011;15961;54.678;9.110;2022-12-26T16:33:58;36.67;;;6.57;;
28822;SDS011;15961;54.678;9.110;2022-12-26T16:36:25;58.58;;;14.20;;
28822;SDS011;15961;54.678;9.110;2022-12-26T16:38:52;60.83;;;17.48;;
28822;SDS011;15961;54.678;9.110;2022-12-26T16:41:25;93.43;;;28.83;;
28822;SDS011;15961;54.678;9.110;2022-12-26T16:43:53;49.95;;;9.90;;
28822;SDS011;15961;54.678;9.110;2022-12-26T16:46:25;58.75;;;13.93;;
28822;SDS011;15961;54.678;9.110;2022-12-26T16:48:57;55.55;;;11.60;;
28822;SDS011;15961;54.678;9.110;2022-12-26T16:54:14;42.10;;;8.35;;
28822;SDS011;15961;54.678;9.110;2022-12-26T16:56:40;47.13;;;11.13;;
28822;SDS011;15961;54.678;9.110;2022-12-26T16:59:10;54.88;;;11.50;;
28822;SDS011;15961;54.678;9.110;2022-12-26T17:01:46;66.30;;;16.27;;
28822;SDS011;15961;54.678;9.110;2022-12-26T17:06:52;55.33;;;11.90;;
28822;SDS011;15961;54.678;9.110;2022-12-26T17:09:40;41.35;;;10.40;;
28822;SDS011;15961;54.678;9.110;2022-12-26T17:12:16;48.50;;;11.15;;
28822;SDS011;15961;54.678;9.110;2022-12-26T17:14:45;42.85;;;9.13;;
28822;SDS011;15961;54.678;9.110;2022-12-26T17:19:48;57.08;;;12.50;;
28822;SDS011;15961;54.678;9.110;2022-12-26T17:22:17;61.35;;;14.57;;
28822;SDS011;15961;54.678;9.110;2022-12-26T17:27:45;42.75;;;5.80;;
28822;SDS011;15961;54.678;9.110;2022-12-26T17:30:20;38.13;;;5.78;;
28822;SDS011;15961;54.678;9.110;2022-12-26T17:32:51;37.45;;;6.60;;
28822;SDS011;15961;54.678;9.110;2022-12-26T17:35:18;31.05;;;5.53;;
28822;SDS011;15961;54.678;9.110;2022-12-26T17:37:50;30.98;;;8.43;;
28822;SDS011;15961;54.678;9.110;2022-12-26T17:40:33;34.38;;;6.43;;
28822;SDS011;15961;54.678;9.110;2022-12-26T17:43:06;43.83;;;12.73;;
28822;SDS011;15961;54.678;9.110;2022-12-26T17:45:44;66.68;;;17.27;;
28822;SDS011;15961;54.678;9.110;2022-12-26T17:48:10;35.70;;;3.42;;
28822;SDS011;15961;54.678;9.110;2022-12-26T17:50:39;46.42;;;5.10;;
28822;SDS011;15961;54.678;9.110;2022-12-26T17:55:49;38.47;;;4.32;;
28822;SDS011;15961;54.678;9.110;2022-12-26T17:58:15;29.42;;;4.63;;
28822;SDS011;15961;54.678;9.110;2022-12-26T18:00:41;46.25;;;4.60;;
28822;SDS011;15961;54.678;9.110;2022-12-26T18:03:08;25.90;;;4.25;;
28822;SDS011;15961;54.678;9.110;2022-12-26T18:05:34;25.60;;;4.07;;
28822;SDS011;15961;54.678;9.110;2022-12-26T18:08:00;30.13;;;4.40;;
28822;SDS011;15961;54.678;9.110;2022-12-26T18:10:28;24.20;;;3.63;;
28822;SDS011;15961;54.678;9.110;2022-12-26T18:12:55;26.35;;;3.75;;
28822;SDS011;15961;54.678;9.110;2022-12-26T18:15:21;21.83;;;3.05;;
28822;SDS011;15961;54.678;9.110;2022-12-26T18:17:47;22.48;;;3.92;;
28822;SDS011;15961;54.678;9.110;2022-12-26T18:20:15;20.80;;;3.17;;
28822;SDS011;15961;54.678;9.110;2022-12-26T18:22:45;23.83;;;3.60;;
28822;SDS011;15961;54.678;9.110;2022-12-26T18:25:12;37.40;;;4.10;;
28822;SDS011;15961;54.678;9.110;2022-12-26T18:27:39;17.13;;;2.65;;
28822;SDS011;15961;54.678;9.110;2022-12-26T18:30:05;17.98;;;2.72;;
28822;SDS011;15961;54.678;9.110;2022-12-26T18:32:34;36.67;;;4.28;;